Terminal Aerodrome Forecast
Issued by NWS

Home | Current Version | Previous Version | Text Only | Print | Product List | Glossary On
Versions: 1 2 3 4 5 6 7 8 9 10 11 12 13 14 15 16 17 18
000
FTUS45 KABQ 311100 RRA
TAFGUP
TAF
KGUP 311151Z 3112/0112 13007KT P6SM VCTS SCT080CB BKN100
     FM311400 VRB05KT P6SM BKN100
     FM311900 25010G18KT P6SM SCT080 BKN100
     FM312100 30012G22KT P6SM VCTS BKN080CB
     FM010100 30009KT P6SM VCSH BKN070 OVC100 PROB30 0101/0106 -RA
      BKN060=

USA.gov is the U.S. government's official web portal to all federal, state and local government web resources and services.